Bungo Princess — 3FXV8 — position and weather

sailwx.info

Track history (hours):
 
Tides and Currents Weather Stations Pressure Air Temp Water Temp Dewpoint Dewpoint Depression Visibility Wind Speed Wind Dir Waves Ship Positions

Bungo Princess

Last reported at 2015-Aug-02 00:33 UTC. Time now 2015-Aug-04 17:59 UTC.
Position N 25°06' E 120°12'.

Length 103 m; draft 7.4 m.

Type: Cargo ship. MMSI: 355091000.

Date/timePositionNaut miles runAvg speedWind from/ knotsBaromVisibWave heightAir tempDewpointWater temp
2015-Aug-02 00:33N 25°06' E 120°12'1515.1
2015-Aug-01 23:33N 24°57' E 119°59'1616.1
2015-Aug-01 22:33N 24°48' E 119°44'1616.2
2015-Aug-01 21:33N 24°39' E 119°29'1615.3
2015-Aug-01 20:29N 24°32' E 119°13'1514.6
2015-Aug-01 19:26N 24°27' E 118°57'1214.3
2015-Aug-01 18:33N 24°22' E 118°45'1814.1
2015-Aug-01 17:18N 24°14' E 118°27'1013.1
2015-Aug-01 16:33N 24°13' E 118°16'8 8.5
2015-Aug-01 15:34N 24°19' E 118°11'7 6.6
2015-Aug-01 14:32N 24°24' E 118°06'7 7.4
2015-Aug-01 13:34N 24°32' E 118°05'1 0.4
2015-Aug-01 10:27N 24°33' E 118°05'0 0.0
2015-Aug-01 07:09N 24°33' E 118°05'0 0.0
2015-Aug-01 06:21N 24°33' E 118°05'0 0.0
2015-Aug-01 05:21N 24°33' E 118°05'0 0.0
2015-Aug-01 04:33N 24°33' E 118°05'0 0.0
2015-Aug-01 02:33N 24°33' E 118°05'0 0.0
2015-Aug-01 01:33N 24°33' E 118°05'0 0.0
2015-Jul-31 22:33N 24°33' E 118°05'0 0.0
2015-Jul-31 21:27N 24°33' E 118°05'0 0.0
2015-Jul-31 20:33N 24°33' E 118°05'0 0.0
2015-Jul-31 17:27N 24°33' E 118°05'0 0.0
2015-Jul-31 16:15N 24°33' E 118°05'0 0.0
2015-Jul-31 15:33N 24°33' E 118°05'0 0.0
2015-Jul-31 14:21N 24°33' E 118°05'0 0.0
2015-Jul-31 13:27N 24°33' E 118°05'0 0.0
2015-Jul-31 12:33N 24°33' E 118°05'0 0.0
2015-Jul-31 07:27N 24°33' E 118°05'0 0.0
2015-Jul-31 06:33N 24°33' E 118°05'0 0.0
2015-Jul-31 05:09N 24°33' E 118°05'0 0.0
2015-Jul-31 04:33N 24°33' E 118°05'0 0.0
2015-Jul-31 02:21N 24°33' E 118°05'0 0.0
2015-Jul-31 01:21N 24°33' E 118°05'0 0.0
2015-Jul-30 23:33N 24°33' E 118°05'0 0.0
2015-Jul-30 22:33N 24°33' E 118°05'0 0.0
2015-Jul-30 20:33N 24°33' E 118°05'0 0.0
2015-Jul-30 18:27N 24°33' E 118°05'0 0.0
2015-Jul-30 17:21N 24°33' E 118°05'0 0.0
2015-Jul-30 16:33N 24°33' E 118°05'0 0.0
2015-Jul-30 12:09N 24°33' E 118°05'0 0.0
2015-Jul-30 10:21N 24°33' E 118°05'0 0.0
2015-Jul-30 05:33N 24°33' E 118°05'6 5.6
2015-Jul-30 04:33N 24°27' E 118°03'7 6.7
2015-Jul-30 03:34N 24°22' E 118°08'8 7.8
2015-Jul-30 02:31N 24°15' E 118°11'1110.0
2015-Jul-30 01:23N 24°07' E 118°21'1112.9
2015-Jul-30 00:32N 23°58' E 118°15'1413.7
2015-Jul-29 23:33N 23°45' E 118°09'25612.6
2015-Jul-29 03:19N 22°17' E 113°48'1214.8
2015-Jul-29 02:31N 22°29' E 113°45'1510.4
2015-Jul-29 01:05N 22°43' E 113°40'611.0
2015-Jul-29 00:32N 22°48' E 113°37'10 9.8
2015-Jul-28 23:32N 22°57' E 113°32'6 5.9
2015-Jul-28 22:31N 23°03' E 113°30'0 0.0
2015-Jul-28 21:24N 23°03' E 113°30'0 0.0
2015-Jul-28 20:24N 23°03' E 113°30'0 0.0
2015-Jul-28 19:30N 23°03' E 113°30'0 0.0
2015-Jul-28 18:30N 23°03' E 113°30'0 0.0
2015-Jul-28 17:33N 23°03' E 113°30'0 0.0
2015-Jul-28 16:32N 23°03' E 113°30'0 0.0
2015-Jul-28 15:32N 23°03' E 113°30'0 0.0
2015-Jul-28 14:28N 23°03' E 113°30'0 0.0
2015-Jul-28 13:28N 23°03' E 113°30'0 0.0
2015-Jul-28 12:28N 23°03' E 113°30'0 0.0
2015-Jul-28 11:22N 23°03' E 113°30'0 0.0
2015-Jul-28 10:28N 23°03' E 113°30'0 0.0
2015-Jul-28 09:28N 23°03' E 113°30'0 0.0
2015-Jul-28 08:28N 23°03' E 113°30'0 0.0
2015-Jul-28 07:22N 23°03' E 113°30'0 0.0
2015-Jul-28 06:28N 23°03' E 113°30'0 0.0
2015-Jul-28 05:28N 23°03' E 113°30'0 0.0
2015-Jul-28 04:22N 23°03' E 113°30'0 0.0
2015-Jul-28 03:16N 23°03' E 113°30'2 2.2
2015-Jul-28 02:33N 23°02' E 113°31'1010.2
2015-Jul-28 01:33N 22°52' E 113°34'3013.0
2015-Jul-27 23:16N 22°24' E 113°46'1013.6
2015-Jul-27 22:33N 22°15' E 113°48'7 7.2
2015-Jul-27 21:33N 22°08' E 113°47'0 0.0
2015-Jul-27 20:33N 22°08' E 113°47'0 0.0
2015-Jul-27 19:33N 22°08' E 113°47'0 0.0
2015-Jul-27 18:33N 22°08' E 113°47'0 0.1
2015-Jul-27 17:33N 22°08' E 113°47'0 0.0
2015-Jul-27 16:33N 22°07' E 113°47'0 0.0
2015-Jul-27 15:33N 22°07' E 113°47'2 2.4
2015-Jul-27 14:32N 22°06' E 113°49'1610.9
2015-Jul-27 13:05N 22°13' E 114°05'5 9.3
2015-Jul-27 12:33N 22°17' E 114°05'2 1.9
2015-Jul-27 11:33N 22°19' E 114°04'0 0.1
2015-Jul-27 10:34N 22°19' E 114°04'0 0.0
2015-Jul-27 09:31N 22°19' E 114°04'0 0.0
2015-Jul-27 08:25N 22°19' E 114°04'0 0.0
2015-Jul-27 07:28N 22°19' E 114°04'0 0.0
2015-Jul-27 06:25N 22°19' E 114°04'0 0.0
2015-Jul-27 05:34N 22°19' E 114°04'0 0.1
2015-Jul-27 04:31N 22°19' E 114°04'2 1.6
2015-Jul-27 03:33N 22°18' E 114°06'  
Track history (hours):
 
Tides and Currents Weather Stations Pressure Air Temp Water Temp Dewpoint Dewpoint Depression Visibility Wind Speed Wind Dir Waves Ship Positions

Bungo Princess

Last reported at 2015-Aug-02 00:33 UTC. Time now 2015-Aug-04 17:59 UTC.
Position N 25°06' E 120°12'.

Length 103 m; draft 7.4 m.

Type: Cargo ship. MMSI: 355091000.

Date/timePositionNaut miles runAvg speedWind from/ knotsBaromVisibWave heightAir tempDewpointWater temp
2015-Aug-02 00:33N 25°06' E 120°12'1515.1
2015-Aug-01 23:33N 24°57' E 119°59'1616.1
2015-Aug-01 22:33N 24°48' E 119°44'1616.2
2015-Aug-01 21:33N 24°39' E 119°29'1615.3
2015-Aug-01 20:29N 24°32' E 119°13'1514.6
2015-Aug-01 19:26N 24°27' E 118°57'1214.3
2015-Aug-01 18:33N 24°22' E 118°45'1814.1
2015-Aug-01 17:18N 24°14' E 118°27'1013.1
2015-Aug-01 16:33N 24°13' E 118°16'8 8.5
2015-Aug-01 15:34N 24°19' E 118°11'7 6.6
2015-Aug-01 14:32N 24°24' E 118°06'7 7.4
2015-Aug-01 13:34N 24°32' E 118°05'1 0.4
2015-Aug-01 10:27N 24°33' E 118°05'0 0.0
2015-Aug-01 07:09N 24°33' E 118°05'0 0.0
2015-Aug-01 06:21N 24°33' E 118°05'0 0.0
2015-Aug-01 05:21N 24°33' E 118°05'0 0.0
2015-Aug-01 04:33N 24°33' E 118°05'0 0.0
2015-Aug-01 02:33N 24°33' E 118°05'0 0.0
2015-Aug-01 01:33N 24°33' E 118°05'0 0.0
2015-Jul-31 22:33N 24°33' E 118°05'0 0.0
2015-Jul-31 21:27N 24°33' E 118°05'0 0.0
2015-Jul-31 20:33N 24°33' E 118°05'0 0.0
2015-Jul-31 17:27N 24°33' E 118°05'0 0.0
2015-Jul-31 16:15N 24°33' E 118°05'0 0.0
2015-Jul-31 15:33N 24°33' E 118°05'0 0.0
2015-Jul-31 14:21N 24°33' E 118°05'0 0.0
2015-Jul-31 13:27N 24°33' E 118°05'0 0.0
2015-Jul-31 12:33N 24°33' E 118°05'0 0.0
2015-Jul-31 07:27N 24°33' E 118°05'0 0.0
2015-Jul-31 06:33N 24°33' E 118°05'0 0.0
2015-Jul-31 05:09N 24°33' E 118°05'0 0.0
2015-Jul-31 04:33N 24°33' E 118°05'0 0.0
2015-Jul-31 02:21N 24°33' E 118°05'0 0.0
2015-Jul-31 01:21N 24°33' E 118°05'0 0.0
2015-Jul-30 23:33N 24°33' E 118°05'0 0.0
2015-Jul-30 22:33N 24°33' E 118°05'0 0.0
2015-Jul-30 20:33N 24°33' E 118°05'0 0.0
2015-Jul-30 18:27N 24°33' E 118°05'0 0.0
2015-Jul-30 17:21N 24°33' E 118°05'0 0.0
2015-Jul-30 16:33N 24°33' E 118°05'0 0.0
2015-Jul-30 12:09N 24°33' E 118°05'0 0.0
2015-Jul-30 10:21N 24°33' E 118°05'0 0.0
2015-Jul-30 05:33N 24°33' E 118°05'6 5.6
2015-Jul-30 04:33N 24°27' E 118°03'7 6.7
2015-Jul-30 03:34N 24°22' E 118°08'8 7.8
2015-Jul-30 02:31N 24°15' E 118°11'1110.0
2015-Jul-30 01:23N 24°07' E 118°21'1112.9
2015-Jul-30 00:32N 23°58' E 118°15'1413.7
2015-Jul-29 23:33N 23°45' E 118°09'25612.6
2015-Jul-29 03:19N 22°17' E 113°48'1214.8
2015-Jul-29 02:31N 22°29' E 113°45'1510.4
2015-Jul-29 01:05N 22°43' E 113°40'611.0
2015-Jul-29 00:32N 22°48' E 113°37'10 9.8
2015-Jul-28 23:32N 22°57' E 113°32'6 5.9
2015-Jul-28 22:31N 23°03' E 113°30'0 0.0
2015-Jul-28 21:24N 23°03' E 113°30'0 0.0
2015-Jul-28 20:24N 23°03' E 113°30'0 0.0
2015-Jul-28 19:30N 23°03' E 113°30'0 0.0
2015-Jul-28 18:30N 23°03' E 113°30'0 0.0
2015-Jul-28 17:33N 23°03' E 113°30'0 0.0
2015-Jul-28 16:32N 23°03' E 113°30'0 0.0
2015-Jul-28 15:32N 23°03' E 113°30'0 0.0
2015-Jul-28 14:28N 23°03' E 113°30'0 0.0
2015-Jul-28 13:28N 23°03' E 113°30'0 0.0
2015-Jul-28 12:28N 23°03' E 113°30'0 0.0
2015-Jul-28 11:22N 23°03' E 113°30'0 0.0
2015-Jul-28 10:28N 23°03' E 113°30'0 0.0
2015-Jul-28 09:28N 23°03' E 113°30'0 0.0
2015-Jul-28 08:28N 23°03' E 113°30'0 0.0
2015-Jul-28 07:22N 23°03' E 113°30'0 0.0
2015-Jul-28 06:28N 23°03' E 113°30'0 0.0
2015-Jul-28 05:28N 23°03' E 113°30'0 0.0
2015-Jul-28 04:22N 23°03' E 113°30'0 0.0
2015-Jul-28 03:16N 23°03' E 113°30'2 2.2
2015-Jul-28 02:33N 23°02' E 113°31'1010.2
2015-Jul-28 01:33N 22°52' E 113°34'3013.0
2015-Jul-27 23:16N 22°24' E 113°46'1013.6
2015-Jul-27 22:33N 22°15' E 113°48'7 7.2
2015-Jul-27 21:33N 22°08' E 113°47'0 0.0
2015-Jul-27 20:33N 22°08' E 113°47'0 0.0
2015-Jul-27 19:33N 22°08' E 113°47'0 0.0
2015-Jul-27 18:33N 22°08' E 113°47'0 0.1
2015-Jul-27 17:33N 22°08' E 113°47'0 0.0
2015-Jul-27 16:33N 22°07' E 113°47'0 0.0
2015-Jul-27 15:33N 22°07' E 113°47'2 2.4
2015-Jul-27 14:32N 22°06' E 113°49'1610.9
2015-Jul-27 13:05N 22°13' E 114°05'5 9.3
2015-Jul-27 12:33N 22°17' E 114°05'2 1.9
2015-Jul-27 11:33N 22°19' E 114°04'0 0.1
2015-Jul-27 10:34N 22°19' E 114°04'0 0.0
2015-Jul-27 09:31N 22°19' E 114°04'0 0.0
2015-Jul-27 08:25N 22°19' E 114°04'0 0.0
2015-Jul-27 07:28N 22°19' E 114°04'0 0.0
2015-Jul-27 06:25N 22°19' E 114°04'0 0.0
2015-Jul-27 05:34N 22°19' E 114°04'0 0.1
2015-Jul-27 04:31N 22°19' E 114°04'2 1.6
2015-Jul-27 03:33N 22°18' E 114°06'  

Dump ship's entire track history